Terminal Aerodrome Forecast
Issued by NWS

Home | Current Version | Previous Version | Graphics & Text | Print | Product List | Glossary On
Versions: 1 2 3 4 5 6 7 8 9 10 11 12 13 14 15 16
000
FTUS43 KGRB 270500
TAFMTW
TAF
KMTW 270530Z 2706/2806 VRB03KT P6SM BKN250
     FM271000 VRB03KT P6SM BKN100
      TEMPO 2711/2714 6SM -SHRA SCT040 BKN070
     FM271400 35005KT P6SM SCT040 BKN120
     FM271800 04007KT P6SM SCT045
     FM272300 11004KT P6SM SCT250=

USA.gov is the U.S. government's official web portal to all federal, state and local government web resources and services.